WXForecasting.com
 BROWN COUNTY, SD  -  River Flood Warning River Flood Warning  
Aberdeen, SD - Weather Station Data
Daily Summary for May 19, 2017 Units:  Both    English   Metric
Next Day »
Daily Weekly Monthly Yearly Custom
  High: Low: Average:
Temperature: 59.8 °F /  15.4 °C 45.5 °F /  7.5 °C 52.3 °F /  11.3 °C
Dew Point: 42.0 °F /  5.6 °C 31.0 °F /  -0.6 °C 35.5 °F /  1.9 °C
Humidity: 63% 39% 54%
Wind Speed: 14.0mph /  22.5km/h - 3.6mph /  5.8km/h
Wind Gust: 17.0mph /  27.4km/h - -
Wind- - ENE
Pressure: 30.25 in /  1024.3 hPa 30.18 in /  1021.9 hPa -
Precipitation: 0.00 in /  0 mm    
Historical Graphs
 
 
Tabular Data for May 19, 2017
Time Temperature Dew Point Pressure Wind Wind Speed Wind Gust Humidity Rainfall Rate (Hourly) solar Conditions
00:11 49.6 °F /  9.8 °C 35.0 °F /  1.7 °C 30.18in /  1021.9hPa North 3.0mph /  4.8km/h 6.0mph /  9.7km/h 57% 0.00in /  0mm 0 W/m2
00:26 49.3 °F /  9.6 °C 35.0 °F /  1.7 °C 30.20in /  1022.6hPa Calm   5.0mph /  8km/h 58% 0.00in /  0mm 0 W/m2
00:41 48.9 °F /  9.4 °C 35.0 °F /  1.7 °C 30.20in /  1022.6hPa NNE 3.0mph /  4.8km/h 5.0mph /  8km/h 59% 0.00in /  0mm 0 W/m2
00:56 48.7 °F /  9.3 °C 35.0 °F /  1.7 °C 30.20in /  1022.6hPa NE 3.0mph /  4.8km/h 6.0mph /  9.7km/h 59% 0.00in /  0mm 0 W/m2
01:11 48.3 °F /  9.1 °C 35.0 °F /  1.7 °C 30.20in /  1022.6hPa NNE 2.0mph /  3.2km/h 6.0mph /  9.7km/h 60% 0.00in /  0mm 0 W/m2
01:26 47.9 °F /  8.8 °C 34.0 °F /  1.1 °C 30.20in /  1022.6hPa Calm   5.0mph /  8km/h 60% 0.00in /  0mm 0 W/m2
01:41 47.7 °F /  8.7 °C 34.0 °F /  1.1 °C 30.20in /  1022.6hPa NNE 1.0mph /  1.6km/h 6.0mph /  9.7km/h 60% 0.00in /  0mm 0 W/m2
01:56 47.4 °F /  8.6 °C 34.0 °F /  1.1 °C 30.20in /  1022.6hPa NNE 5.0mph /  8km/h 8.0mph /  12.9km/h 60% 0.00in /  0mm 0 W/m2
02:11 47.3 °F /  8.5 °C 33.0 °F /  0.6 °C 30.18in /  1021.9hPa NNE 5.0mph /  8km/h 6.0mph /  9.7km/h 59% 0.00in /  0mm 0 W/m2
02:27 47.4 °F /  8.6 °C 33.0 °F /  0.6 °C 30.18in /  1021.9hPa NNE 5.0mph /  8km/h 9.0mph /  14.5km/h 58% 0.00in /  0mm 0 W/m2
02:42 47.8 °F /  8.8 °C 32.0 °F /  0 °C 30.18in /  1021.9hPa North 3.0mph /  4.8km/h 8.0mph /  12.9km/h 55% 0.00in /  0mm 0 W/m2
02:57 47.9 °F /  8.8 °C 32.0 °F /  0 °C 30.19in /  1022.2hPa NNE 4.0mph /  6.4km/h 5.0mph /  8km/h 55% 0.00in /  0mm 0 W/m2
03:12 47.7 °F /  8.7 °C 32.0 °F /  0 °C 30.19in /  1022.2hPa NNE 2.0mph /  3.2km/h 8.0mph /  12.9km/h 56% 0.00in /  0mm 0 W/m2
03:27 47.4 °F /  8.6 °C 32.0 °F /  0 °C 30.19in /  1022.2hPa NE 1.0mph /  1.6km/h 6.0mph /  9.7km/h 56% 0.00in /  0mm 0 W/m2
03:42 47.4 °F /  8.6 °C 33.0 °F /  0.6 °C 30.20in /  1022.6hPa NE 3.0mph /  4.8km/h 6.0mph /  9.7km/h 57% 0.00in /  0mm 0 W/m2
03:57 47.3 °F /  8.5 °C 33.0 °F /  0.6 °C 30.20in /  1022.6hPa NE 2.0mph /  3.2km/h 6.0mph /  9.7km/h 57% 0.00in /  0mm 0 W/m2
04:12 47.1 °F /  8.4 °C 33.0 °F /  0.6 °C 30.21in /  1022.9hPa NNE 3.0mph /  4.8km/h 6.0mph /  9.7km/h 58% 0.00in /  0mm 0 W/m2
04:27 47.0 °F /  8.3 °C 33.0 °F /  0.6 °C 30.21in /  1022.9hPa NNE 5.0mph /  8km/h 6.0mph /  9.7km/h 59% 0.00in /  0mm 0 W/m2
04:42 47.0 °F /  8.3 °C 33.0 °F /  0.6 °C 30.21in /  1022.9hPa NE 3.0mph /  4.8km/h 5.0mph /  8km/h 59% 0.00in /  0mm 0 W/m2
04:57 47.0 °F /  8.3 °C 33.0 °F /  0.6 °C 30.21in /  1022.9hPa NE 2.0mph /  3.2km/h 9.0mph /  14.5km/h 59% 0.00in /  0mm 0 W/m2
05:12 46.8 °F /  8.2 °C 33.0 °F /  0.6 °C 30.21in /  1022.9hPa NE 7.0mph /  11.3km/h 9.0mph /  14.5km/h 60% 0.00in /  0mm 0 W/m2
05:27 46.6 °F /  8.1 °C 34.0 °F /  1.1 °C 30.21in /  1022.9hPa NE 5.0mph /  8km/h 11.0mph /  17.7km/h 61% 0.00in /  0mm 0 W/m2
05:42 46.4 °F /  8 °C 33.0 °F /  0.6 °C 30.22in /  1023.2hPa NNE 4.0mph /  6.4km/h 8.0mph /  12.9km/h 61% 0.00in /  0mm 0 W/m2
05:57 46.2 °F /  7.9 °C 34.0 °F /  1.1 °C 30.22in /  1023.2hPa NNE 3.0mph /  4.8km/h 6.0mph /  9.7km/h 62% 0.00in /  0mm 0 W/m2
06:12 45.9 °F /  7.7 °C 33.0 °F /  0.6 °C 30.22in /  1023.2hPa NNE 4.0mph /  6.4km/h 6.0mph /  9.7km/h 62% 0.00in /  0mm 5 W/m2
06:27 45.8 °F /  7.7 °C 34.0 °F /  1.1 °C 30.22in /  1023.2hPa NNE 2.0mph /  3.2km/h 5.0mph /  8km/h 63% 0.00in /  0mm 11 W/m2
06:42 45.5 °F /  7.5 °C 33.0 °F /  0.6 °C 30.22in /  1023.2hPa North 2.0mph /  3.2km/h 8.0mph /  12.9km/h 63% 0.00in /  0mm 18 W/m2
06:57 45.6 °F /  7.6 °C 33.0 °F /  0.6 °C 30.24in /  1023.9hPa NNE 4.0mph /  6.4km/h 10.0mph /  16.1km/h 62% 0.00in /  0mm 28 W/m2
07:12 45.8 °F /  7.7 °C 33.0 °F /  0.6 °C 30.24in /  1023.9hPa NE 3.0mph /  4.8km/h 8.0mph /  12.9km/h 62% 0.00in /  0mm 44 W/m2
07:27 45.9 °F /  7.7 °C 33.0 °F /  0.6 °C 30.23in /  1023.6hPa NNE 5.0mph /  8km/h 6.0mph /  9.7km/h 62% 0.00in /  0mm 62 W/m2
07:42 46.1 °F /  7.8 °C 34.0 °F /  1.1 °C 30.23in /  1023.6hPa NNE 1.0mph /  1.6km/h 8.0mph /  12.9km/h 62% 0.00in /  0mm 72 W/m2
07:57 46.4 °F /  8 °C 34.0 °F /  1.1 °C 30.23in /  1023.6hPa NNE 3.0mph /  4.8km/h 10.0mph /  16.1km/h 62% 0.00in /  0mm 83 W/m2
08:12 46.6 °F /  8.1 °C 34.0 °F /  1.1 °C 30.23in /  1023.6hPa NE 5.0mph /  8km/h 10.0mph /  16.1km/h 63% 0.00in /  0mm 102 W/m2
08:27 47.0 °F /  8.3 °C 34.0 °F /  1.1 °C 30.23in /  1023.6hPa NNE 4.0mph /  6.4km/h 9.0mph /  14.5km/h 62% 0.00in /  0mm 116 W/m2
08:42 47.6 °F /  8.7 °C 35.0 °F /  1.7 °C 30.23in /  1023.6hPa ENE 6.0mph /  9.7km/h 8.0mph /  12.9km/h 62% 0.00in /  0mm 125 W/m2
08:57 47.9 °F /  8.8 °C 36.0 °F /  2.2 °C 30.23in /  1023.6hPa NE 3.0mph /  4.8km/h 6.0mph /  9.7km/h 63% 0.00in /  0mm 130 W/m2
09:12 48.5 °F /  9.2 °C 36.0 °F /  2.2 °C 30.23in /  1023.6hPa NE 6.0mph /  9.7km/h 11.0mph /  17.7km/h 63% 0.00in /  0mm 130 W/m2
09:27 48.9 °F /  9.4 °C 37.0 °F /  2.8 °C 30.24in /  1023.9hPa Calm   11.0mph /  17.7km/h 63% 0.00in /  0mm 137 W/m2
09:42 49.6 °F /  9.8 °C 37.0 °F /  2.8 °C 30.24in /  1023.9hPa ENE 4.0mph /  6.4km/h 9.0mph /  14.5km/h 63% 0.00in /  0mm 137 W/m2
09:57 50.3 °F /  10.2 °C 38.0 °F /  3.3 °C 30.24in /  1023.9hPa NE 9.0mph /  14.5km/h 11.0mph /  17.7km/h 63% 0.00in /  0mm 153 W/m2
10:13 51.0 °F /  10.6 °C 39.0 °F /  3.9 °C 30.23in /  1023.6hPa ESE 1.0mph /  1.6km/h 9.0mph /  14.5km/h 63% 0.00in /  0mm 165 W/m2
10:28 51.6 °F /  10.9 °C 39.0 °F /  3.9 °C 30.24in /  1023.9hPa East 2.0mph /  3.2km/h 11.0mph /  17.7km/h 62% 0.00in /  0mm 197 W/m2
10:43 52.3 °F /  11.3 °C 40.0 °F /  4.4 °C 30.24in /  1023.9hPa NE 1.0mph /  1.6km/h 10.0mph /  16.1km/h 63% 0.00in /  0mm 237 W/m2
10:58 53.5 °F /  11.9 °C 40.0 °F /  4.4 °C 30.25in /  1024.3hPa East 2.0mph /  3.2km/h 6.0mph /  9.7km/h 60% 0.00in /  0mm 320 W/m2
11:13 54.8 °F /  12.7 °C 40.0 °F /  4.4 °C 30.25in /  1024.3hPa NE 3.0mph /  4.8km/h 6.0mph /  9.7km/h 57% 0.00in /  0mm 390 W/m2
11:28 55.5 °F /  13.1 °C 40.0 °F /  4.4 °C 30.24in /  1023.9hPa East 2.0mph /  3.2km/h 6.0mph /  9.7km/h 57% 0.00in /  0mm 381 W/m2
11:43 56.3 °F /  13.5 °C 41.0 °F /  5 °C 30.25in /  1024.3hPa SE 3.0mph /  4.8km/h 6.0mph /  9.7km/h 56% 0.00in /  0mm 459 W/m2
11:58 57.3 °F /  14.1 °C 41.0 °F /  5 °C 30.24in /  1023.9hPa East 1.0mph /  1.6km/h 6.0mph /  9.7km/h 54% 0.00in /  0mm 452 W/m2
12:13 57.6 °F /  14.2 °C 40.0 °F /  4.4 °C 30.24in /  1023.9hPa ESE 2.0mph /  3.2km/h 7.0mph /  11.3km/h 52% 0.00in /  0mm 533 W/m2
12:28 58.3 °F /  14.6 °C 37.0 °F /  2.8 °C 30.24in /  1023.9hPa NE 5.0mph /  8km/h 9.0mph /  14.5km/h 46% 0.00in /  0mm 592 W/m2
12:43 58.1 °F /  14.5 °C 40.0 °F /  4.4 °C 30.24in /  1023.9hPa SE 4.0mph /  6.4km/h 10.0mph /  16.1km/h 51% 0.00in /  0mm 478 W/m2
12:58 58.2 °F /  14.6 °C 39.0 °F /  3.9 °C 30.23in /  1023.6hPa East 3.0mph /  4.8km/h 9.0mph /  14.5km/h 50% 0.00in /  0mm 476 W/m2
13:13 58.2 °F /  14.6 °C 40.0 °F /  4.4 °C 30.23in /  1023.6hPa ENE 4.0mph /  6.4km/h 13.0mph /  20.9km/h 51% 0.00in /  0mm 475 W/m2
13:28 58.7 °F /  14.8 °C 40.0 °F /  4.4 °C 30.23in /  1023.6hPa East 1.0mph /  1.6km/h 8.0mph /  12.9km/h 51% 0.00in /  0mm 499 W/m2
13:43 58.7 °F /  14.8 °C 42.0 °F /  5.6 °C 30.23in /  1023.6hPa SE 2.0mph /  3.2km/h 10.0mph /  16.1km/h 54% 0.00in /  0mm 508 W/m2
13:58 58.9 °F /  14.9 °C 41.0 °F /  5 °C 30.23in /  1023.6hPa North 7.0mph /  11.3km/h 12.0mph /  19.3km/h 52% 0.00in /  0mm 640 W/m2
14:13 59.3 °F /  15.2 °C 41.0 °F /  5 °C 30.23in /  1023.6hPa NE 2.0mph /  3.2km/h 14.0mph /  22.5km/h 51% 0.00in /  0mm 390 W/m2
14:28 58.9 °F /  14.9 °C 40.0 °F /  4.4 °C 30.23in /  1023.6hPa SSE 3.0mph /  4.8km/h 12.0mph /  19.3km/h 49% 0.00in /  0mm 455 W/m2
14:43 59.2 °F /  15.1 °C 40.0 °F /  4.4 °C 30.22in /  1023.2hPa East 2.0mph /  3.2km/h 10.0mph /  16.1km/h 50% 0.00in /  0mm 422 W/m2
14:58 58.2 °F /  14.6 °C 40.0 °F /  4.4 °C 30.23in /  1023.6hPa NE 9.0mph /  14.5km/h 15.0mph /  24.1km/h 52% 0.00in /  0mm 336 W/m2
15:13 57.9 °F /  14.4 °C 40.0 °F /  4.4 °C 30.23in /  1023.6hPa ENE 6.0mph /  9.7km/h 11.0mph /  17.7km/h 51% 0.00in /  0mm 322 W/m2
15:28 58.5 °F /  14.7 °C 39.0 °F /  3.9 °C 30.23in /  1023.6hPa NE 4.0mph /  6.4km/h 11.0mph /  17.7km/h 48% 0.00in /  0mm 415 W/m2
15:43 58.1 °F /  14.5 °C 39.0 °F /  3.9 °C 30.23in /  1023.6hPa East 2.0mph /  3.2km/h 13.0mph /  20.9km/h 49% 0.00in /  0mm 606 W/m2
15:58 58.8 °F /  14.9 °C 39.0 °F /  3.9 °C 30.22in /  1023.2hPa ENE 2.0mph /  3.2km/h 10.0mph /  16.1km/h 49% 0.00in /  0mm 459 W/m2
16:13 59.1 °F /  15.1 °C 40.0 °F /  4.4 °C 30.21in /  1022.9hPa East 4.0mph /  6.4km/h 13.0mph /  20.9km/h 50% 0.00in /  0mm 538 W/m2
16:28 59.4 °F /  15.2 °C 41.0 °F /  5 °C 30.19in /  1022.2hPa NE 6.0mph /  9.7km/h 15.0mph /  24.1km/h 50% 0.00in /  0mm 831 W/m2
16:43 59.4 °F /  15.2 °C 38.0 °F /  3.3 °C 30.20in /  1022.6hPa North 4.0mph /  6.4km/h 14.0mph /  22.5km/h 45% 0.00in /  0mm 763 W/m2
16:58 59.8 °F /  15.4 °C 38.0 °F /  3.3 °C 30.19in /  1022.2hPa NNE 8.0mph /  12.9km/h 14.0mph /  22.5km/h 44% 0.00in /  0mm 364 W/m2
17:13 59.2 °F /  15.1 °C 37.0 °F /  2.8 °C 30.19in /  1022.2hPa NNE 6.0mph /  9.7km/h 15.0mph /  24.1km/h 44% 0.00in /  0mm 338 W/m2
17:28 58.7 °F /  14.8 °C 37.0 °F /  2.8 °C 30.19in /  1022.2hPa NNE 8.0mph /  12.9km/h 17.0mph /  27.4km/h 45% 0.00in /  0mm 346 W/m2
17:43 58.5 °F /  14.7 °C 38.0 °F /  3.3 °C 30.20in /  1022.6hPa ENE 5.0mph /  8km/h 16.0mph /  25.7km/h 47% 0.00in /  0mm 253 W/m2
17:59 58.3 °F /  14.6 °C 36.0 °F /  2.2 °C 30.19in /  1022.2hPa SE 7.0mph /  11.3km/h 13.0mph /  20.9km/h 44% 0.00in /  0mm 262 W/m2
18:13 57.8 °F /  14.3 °C 34.0 °F /  1.1 °C 30.19in /  1022.2hPa NE 9.0mph /  14.5km/h 15.0mph /  24.1km/h 41% 0.00in /  0mm 148 W/m2
18:28 57.0 °F /  13.9 °C 32.0 °F /  0 °C 30.20in /  1022.6hPa NE 14.0mph /  22.5km/h 14.0mph /  22.5km/h 39% 0.00in /  0mm 84 W/m2
18:44 56.7 °F /  13.7 °C 33.0 °F /  0.6 °C 30.21in /  1022.9hPa NE 7.0mph /  11.3km/h 14.0mph /  22.5km/h 41% 0.00in /  0mm 77 W/m2
18:58 56.2 °F /  13.4 °C 32.0 °F /  0 °C 30.20in /  1022.6hPa ENE 3.0mph /  4.8km/h 16.0mph /  25.7km/h 40% 0.00in /  0mm 60 W/m2
19:14 55.8 °F /  13.2 °C 32.0 °F /  0 °C 30.19in /  1022.2hPa ENE 12.0mph /  19.3km/h 15.0mph /  24.1km/h 40% 0.00in /  0mm 83 W/m2
19:29 55.7 °F /  13.2 °C 33.0 °F /  0.6 °C 30.19in /  1022.2hPa East 8.0mph /  12.9km/h 15.0mph /  24.1km/h 42% 0.00in /  0mm 79 W/m2
19:44 55.5 °F /  13.1 °C 34.0 °F /  1.1 °C 30.19in /  1022.2hPa NE 5.0mph /  8km/h 12.0mph /  19.3km/h 45% 0.00in /  0mm 72 W/m2
19:59 54.9 °F /  12.7 °C 33.0 °F /  0.6 °C 30.19in /  1022.2hPa East 6.0mph /  9.7km/h 12.0mph /  19.3km/h 44% 0.00in /  0mm 62 W/m2
20:14 54.5 °F /  12.5 °C 32.0 °F /  0 °C 30.20in /  1022.6hPa NE 2.0mph /  3.2km/h 13.0mph /  20.9km/h 43% 0.00in /  0mm 46 W/m2
20:29 54.2 °F /  12.3 °C 33.0 °F /  0.6 °C 30.20in /  1022.6hPa NE 6.0mph /  9.7km/h 13.0mph /  20.9km/h 44% 0.00in /  0mm 32 W/m2
20:44 53.8 °F /  12.1 °C 33.0 °F /  0.6 °C 30.20in /  1022.6hPa ENE 3.0mph /  4.8km/h 13.0mph /  20.9km/h 45% 0.00in /  0mm 12 W/m2
20:59 53.3 °F /  11.8 °C 32.0 °F /  0 °C 30.20in /  1022.6hPa NE 4.0mph /  6.4km/h 12.0mph /  19.3km/h 44% 0.00in /  0mm 0 W/m2
21:14 53.0 °F /  11.7 °C 31.0 °F /  -0.6 °C 30.20in /  1022.6hPa Calm   7.0mph /  11.3km/h 44% 0.00in /  0mm 0 W/m2
21:29 52.7 °F /  11.5 °C 32.0 °F /  0 °C 30.21in /  1022.9hPa Calm   5.0mph /  8km/h 46% 0.00in /  0mm 0 W/m2
21:44 52.4 °F /  11.3 °C 33.0 °F /  0.6 °C 30.22in /  1023.2hPa East 1.0mph /  1.6km/h 4.0mph /  6.4km/h 48% 0.00in /  0mm 0 W/m2
21:59 52.1 °F /  11.2 °C 34.0 °F /  1.1 °C 30.22in /  1023.2hPa East 1.0mph /  1.6km/h 6.0mph /  9.7km/h 50% 0.00in /  0mm 0 W/m2
22:14 52.1 °F /  11.2 °C 34.0 °F /  1.1 °C 30.21in /  1022.9hPa East 3.0mph /  4.8km/h 11.0mph /  17.7km/h 50% 0.00in /  0mm 0 W/m2
22:44 51.6 °F /  10.9 °C 32.0 °F /  0 °C 30.21in /  1022.9hPa East 1.0mph /  1.6km/h 7.0mph /  11.3km/h 47% 0.00in /  0mm 0 W/m2
22:59 51.4 °F /  10.8 °C 32.0 °F /  0 °C 30.21in /  1022.9hPa Calm   6.0mph /  9.7km/h 48% 0.00in /  0mm 0 W/m2
23:14 51.1 °F /  10.6 °C 32.0 °F /  0 °C 30.21in /  1022.9hPa ESE 1.0mph /  1.6km/h 3.0mph /  4.8km/h 49% 0.00in /  0mm 0 W/m2
23:29 51.0 °F /  10.6 °C 33.0 °F /  0.6 °C 30.21in /  1022.9hPa ESE 1.0mph /  1.6km/h 4.0mph /  6.4km/h 50% 0.00in /  0mm 0 W/m2
23:44 50.8 °F /  10.4 °C 33.0 °F /  0.6 °C 30.21in /  1022.9hPa Calm   2.0mph /  3.2km/h 51% 0.00in /  0mm 0 W/m2
23:59 50.8 °F /  10.4 °C 33.0 °F /  0.6 °C 30.20in /  1022.6hPa ESE 2.0mph /  3.2km/h 3.0mph /  4.8km/h 51% 0.00in /  0mm 0 W/m2